sensor_id;sensor_type;location;lat;lon;timestamp;temperature;humidity
10417;DHT22;62605;49.432;8.680;2022-08-23T00:02:05;22.80;99.90
10417;DHT22;62605;49.432;8.680;2022-08-23T00:04:36;22.80;99.90
10417;DHT22;62605;49.432;8.680;2022-08-23T00:07:07;22.80;99.90
10417;DHT22;62605;49.432;8.680;2022-08-23T00:09:35;22.80;99.90
10417;DHT22;62605;49.432;8.680;2022-08-23T00:12:07;22.80;99.90
10417;DHT22;62605;49.432;8.680;2022-08-23T00:14:39;22.80;99.90
10417;DHT22;62605;49.432;8.680;2022-08-23T00:17:08;22.80;99.90
10417;DHT22;62605;49.432;8.680;2022-08-23T00:19:35;22.70;99.90
10417;DHT22;62605;49.432;8.680;2022-08-23T00:22:04;22.60;99.90
10417;DHT22;62605;49.432;8.680;2022-08-23T00:24:31;22.50;99.90
10417;DHT22;62605;49.432;8.680;2022-08-23T00:27:01;22.40;99.90
10417;DHT22;62605;49.432;8.680;2022-08-23T00:29:33;22.40;99.90
10417;DHT22;62605;49.432;8.680;2022-08-23T00:32:02;22.40;99.90
10417;DHT22;62605;49.432;8.680;2022-08-23T00:34:30;22.50;99.90
10417;DHT22;62605;49.432;8.680;2022-08-23T00:36:57;22.40;99.90
10417;DHT22;62605;49.432;8.680;2022-08-23T00:39:24;22.40;99.90
10417;DHT22;62605;49.432;8.680;2022-08-23T00:41:56;22.30;99.90
10417;DHT22;62605;49.432;8.680;2022-08-23T00:44:27;22.30;99.90
10417;DHT22;62605;49.432;8.680;2022-08-23T00:47:14;22.20;99.90
10417;DHT22;62605;49.432;8.680;2022-08-23T00:50:06;22.10;99.90
10417;DHT22;62605;49.432;8.680;2022-08-23T00:52:39;22.20;99.90
10417;DHT22;62605;49.432;8.680;2022-08-23T00:55:08;22.20;99.90
10417;DHT22;62605;49.432;8.680;2022-08-23T00:57:35;22.30;99.90
10417;DHT22;62605;49.432;8.680;2022-08-23T01:00:04;22.20;99.90
10417;DHT22;62605;49.432;8.680;2022-08-23T01:02:34;22.30;99.90
10417;DHT22;62605;49.432;8.680;2022-08-23T01:05:02;22.30;99.90
10417;DHT22;62605;49.432;8.680;2022-08-23T01:07:40;22.40;99.90
10417;DHT22;62605;49.432;8.680;2022-08-23T01:10:15;22.40;99.90
10417;DHT22;62605;49.432;8.680;2022-08-23T01:12:48;22.50;99.90
10417;DHT22;62605;49.432;8.680;2022-08-23T01:15:21;22.40;99.90
10417;DHT22;62605;49.432;8.680;2022-08-23T01:17:56;22.30;99.90
10417;DHT22;62605;49.432;8.680;2022-08-23T01:20:31;22.20;99.90
10417;DHT22;62605;49.432;8.680;2022-08-23T01:23:04;22.10;99.90
10417;DHT22;62605;49.432;8.680;2022-08-23T01:25:34;22.10;99.90
10417;DHT22;62605;49.432;8.680;2022-08-23T01:28:02;22.00;99.90
10417;DHT22;62605;49.432;8.680;2022-08-23T01:30:31;21.90;99.90
10417;DHT22;62605;49.432;8.680;2022-08-23T01:33:02;21.90;99.90
10417;DHT22;62605;49.432;8.680;2022-08-23T01:35:33;21.70;99.90
10417;DHT22;62605;49.432;8.680;2022-08-23T01:38:01;21.70;99.90
10417;DHT22;62605;49.432;8.680;2022-08-23T01:40:28;21.70;99.90
10417;DHT22;62605;49.432;8.680;2022-08-23T01:42:58;21.70;99.90
10417;DHT22;62605;49.432;8.680;2022-08-23T01:45:26;21.70;99.90
10417;DHT22;62605;49.432;8.680;2022-08-23T01:47:54;21.80;99.90
10417;DHT22;62605;49.432;8.680;2022-08-23T01:50:23;21.70;99.90
10417;DHT22;62605;49.432;8.680;2022-08-23T01:52:50;21.60;99.90
10417;DHT22;62605;49.432;8.680;2022-08-23T01:55:18;21.60;99.90
10417;DHT22;62605;49.432;8.680;2022-08-23T01:57:47;21.60;99.90
10417;DHT22;62605;49.432;8.680;2022-08-23T02:00:16;21.50;99.90
10417;DHT22;62605;49.432;8.680;2022-08-23T02:02:43;21.40;99.90
10417;DHT22;62605;49.432;8.680;2022-08-23T02:05:11;21.40;99.90
10417;DHT22;62605;49.432;8.680;2022-08-23T02:07:39;21.30;99.90
10417;DHT22;62605;49.432;8.680;2022-08-23T02:10:07;21.40;99.90
10417;DHT22;62605;49.432;8.680;2022-08-23T02:12:36;21.30;99.90
10417;DHT22;62605;49.432;8.680;2022-08-23T02:15:03;21.40;99.90
10417;DHT22;62605;49.432;8.680;2022-08-23T02:17:32;21.30;99.90
10417;DHT22;62605;49.432;8.680;2022-08-23T02:19:59;21.20;99.90
10417;DHT22;62605;49.432;8.680;2022-08-23T02:22:29;21.20;99.90
10417;DHT22;62605;49.432;8.680;2022-08-23T02:24:56;21.30;99.90
10417;DHT22;62605;49.432;8.680;2022-08-23T02:27:23;21.30;99.90
10417;DHT22;62605;49.432;8.680;2022-08-23T02:29:51;21.30;99.90
10417;DHT22;62605;49.432;8.680;2022-08-23T02:32:18;21.30;99.90
10417;DHT22;62605;49.432;8.680;2022-08-23T02:34:47;21.30;99.90
10417;DHT22;62605;49.432;8.680;2022-08-23T02:37:15;21.40;99.90
10417;DHT22;62605;49.432;8.680;2022-08-23T02:39:42;21.40;99.90
10417;DHT22;62605;49.432;8.680;2022-08-23T02:42:10;21.30;99.90
10417;DHT22;62605;49.432;8.680;2022-08-23T02:44:37;21.30;99.90
10417;DHT22;62605;49.432;8.680;2022-08-23T02:47:05;21.30;99.90
10417;DHT22;62605;49.432;8.680;2022-08-23T02:49:34;21.30;99.90
10417;DHT22;62605;49.432;8.680;2022-08-23T02:52:04;21.30;99.90
10417;DHT22;62605;49.432;8.680;2022-08-23T02:54:31;21.30;99.90
10417;DHT22;62605;49.432;8.680;2022-08-23T02:56:58;21.30;99.90
10417;DHT22;62605;49.432;8.680;2022-08-23T02:59:25;21.30;99.90
10417;DHT22;62605;49.432;8.680;2022-08-23T03:01:52;21.20;99.90
10417;DHT22;62605;49.432;8.680;2022-08-23T03:04:20;21.30;99.90
10417;DHT22;62605;49.432;8.680;2022-08-23T03:06:47;21.30;99.90
10417;DHT22;62605;49.432;8.680;2022-08-23T03:09:15;21.20;99.90
10417;DHT22;62605;49.432;8.680;2022-08-23T03:11:44;21.20;99.90
10417;DHT22;62605;49.432;8.680;2022-08-23T03:14:12;21.20;99.90
10417;DHT22;62605;49.432;8.680;2022-08-23T03:16:40;21.10;99.90
10417;DHT22;62605;49.432;8.680;2022-08-23T03:19:07;21.10;99.90
10417;DHT22;62605;49.432;8.680;2022-08-23T03:21:34;21.20;99.90
10417;DHT22;62605;49.432;8.680;2022-08-23T03:24:02;21.20;99.90
10417;DHT22;62605;49.432;8.680;2022-08-23T03:26:30;21.20;99.90
10417;DHT22;62605;49.432;8.680;2022-08-23T03:28:57;21.20;99.90
10417;DHT22;62605;49.432;8.680;2022-08-23T03:31:24;21.10;99.90
10417;DHT22;62605;49.432;8.680;2022-08-23T03:33:52;21.20;99.90
10417;DHT22;62605;49.432;8.680;2022-08-23T03:36:20;21.20;99.90
10417;DHT22;62605;49.432;8.680;2022-08-23T03:38:47;21.10;99.90
10417;DHT22;62605;49.432;8.680;2022-08-23T03:41:14;21.10;99.90
10417;DHT22;62605;49.432;8.680;2022-08-23T03:43:43;21.10;99.90
10417;DHT22;62605;49.432;8.680;2022-08-23T03:46:11;21.10;99.90
10417;DHT22;62605;49.432;8.680;2022-08-23T03:48:48;21.10;99.90
10417;DHT22;62605;49.432;8.680;2022-08-23T03:51:17;21.10;99.90
10417;DHT22;62605;49.432;8.680;2022-08-23T03:53:45;21.20;99.90
10417;DHT22;62605;49.432;8.680;2022-08-23T03:56:21;21.30;99.90
10417;DHT22;62605;49.432;8.680;2022-08-23T03:58:49;21.30;99.90
10417;DHT22;62605;49.432;8.680;2022-08-23T04:01:17;21.30;99.90
10417;DHT22;62605;49.432;8.680;2022-08-23T04:03:44;21.30;99.90
10417;DHT22;62605;49.432;8.680;2022-08-23T04:06:12;21.20;99.90
10417;DHT22;62605;49.432;8.680;2022-08-23T04:08:40;21.20;99.90
10417;DHT22;62605;49.432;8.680;2022-08-23T04:11:08;21.10;99.90
10417;DHT22;62605;49.432;8.680;2022-08-23T04:13:36;21.10;99.90
10417;DHT22;62605;49.432;8.680;2022-08-23T04:16:05;21.20;99.90
10417;DHT22;62605;49.432;8.680;2022-08-23T04:18:33;21.10;99.90
10417;DHT22;62605;49.432;8.680;2022-08-23T04:21:05;21.10;99.90
10417;DHT22;62605;49.432;8.680;2022-08-23T04:23:34;21.00;99.90
10417;DHT22;62605;49.432;8.680;2022-08-23T04:26:02;21.10;99.90
10417;DHT22;62605;49.432;8.680;2022-08-23T04:28:30;21.10;99.90
10417;DHT22;62605;49.432;8.680;2022-08-23T04:30:57;21.00;99.90
10417;DHT22;62605;49.432;8.680;2022-08-23T04:33:26;21.00;99.90
10417;DHT22;62605;49.432;8.680;2022-08-23T04:35:56;21.10;99.90
10417;DHT22;62605;49.432;8.680;2022-08-23T04:38:29;21.00;99.90
10417;DHT22;62605;49.432;8.680;2022-08-23T04:40:57;21.10;99.90
10417;DHT22;62605;49.432;8.680;2022-08-23T04:43:42;21.10;99.90
10417;DHT22;62605;49.432;8.680;2022-08-23T04:46:10;21.10;99.90
10417;DHT22;62605;49.432;8.680;2022-08-23T04:48:41;21.10;99.90
10417;DHT22;62605;49.432;8.680;2022-08-23T04:51:09;21.10;99.90
10417;DHT22;62605;49.432;8.680;2022-08-23T04:53:36;21.00;99.90
10417;DHT22;62605;49.432;8.680;2022-08-23T04:56:05;21.10;99.90
10417;DHT22;62605;49.432;8.680;2022-08-23T04:58:35;21.00;99.90
10417;DHT22;62605;49.432;8.680;2022-08-23T05:01:05;21.00;99.90
10417;DHT22;62605;49.432;8.680;2022-08-23T05:03:34;21.00;99.90
10417;DHT22;62605;49.432;8.680;2022-08-23T05:06:03;21.00;99.90
10417;DHT22;62605;49.432;8.680;2022-08-23T05:08:31;21.00;99.90
10417;DHT22;62605;49.432;8.680;2022-08-23T05:10:59;21.00;99.90
10417;DHT22;62605;49.432;8.680;2022-08-23T05:13:27;21.00;99.90
10417;DHT22;62605;49.432;8.680;2022-08-23T05:15:57;21.00;99.90
10417;DHT22;62605;49.432;8.680;2022-08-23T05:18:24;21.00;99.90
10417;DHT22;62605;49.432;8.680;2022-08-23T05:20:52;21.00;99.90
10417;DHT22;62605;49.432;8.680;2022-08-23T05:23:21;21.00;99.90
10417;DHT22;62605;49.432;8.680;2022-08-23T05:25:48;21.10;99.90
10417;DHT22;62605;49.432;8.680;2022-08-23T05:28:17;21.10;99.90
10417;DHT22;62605;49.432;8.680;2022-08-23T05:30:51;21.10;99.90
10417;DHT22;62605;49.432;8.680;2022-08-23T05:33:19;21.10;99.90
10417;DHT22;62605;49.432;8.680;2022-08-23T05:35:46;21.20;99.90
10417;DHT22;62605;49.432;8.680;2022-08-23T05:38:13;21.20;99.90
10417;DHT22;62605;49.432;8.680;2022-08-23T05:40:43;21.20;99.90
10417;DHT22;62605;49.432;8.680;2022-08-23T05:43:10;21.30;99.90
10417;DHT22;62605;49.432;8.680;2022-08-23T05:45:37;21.20;99.90
10417;DHT22;62605;49.432;8.680;2022-08-23T05:48:04;20.90;99.90
10417;DHT22;62605;49.432;8.680;2022-08-23T05:50:31;20.70;99.90
10417;DHT22;62605;49.432;8.680;2022-08-23T05:53:00;20.40;99.90
10417;DHT22;62605;49.432;8.680;2022-08-23T05:55:27;20.40;99.90
10417;DHT22;62605;49.432;8.680;2022-08-23T05:57:55;20.30;99.90
10417;DHT22;62605;49.432;8.680;2022-08-23T06:00:23;20.30;99.90
10417;DHT22;62605;49.432;8.680;2022-08-23T06:02:50;20.30;99.90
10417;DHT22;62605;49.432;8.680;2022-08-23T06:05:18;20.40;1.00
10417;DHT22;62605;49.432;8.680;2022-08-23T06:07:45;20.30;1.00
10417;DHT22;62605;49.432;8.680;2022-08-23T06:10:13;20.40;1.00
10417;DHT22;62605;49.432;8.680;2022-08-23T06:12:40;20.50;1.00
10417;DHT22;62605;49.432;8.680;2022-08-23T06:15:09;20.50;1.00
10417;DHT22;62605;49.432;8.680;2022-08-23T06:17:36;20.60;1.00
10417;DHT22;62605;49.432;8.680;2022-08-23T06:20:04;20.60;1.00
10417;DHT22;62605;49.432;8.680;2022-08-23T06:22:32;20.80;1.00
10417;DHT22;62605;49.432;8.680;2022-08-23T06:25:00;20.90;1.00
10417;DHT22;62605;49.432;8.680;2022-08-23T06:27:28;20.90;1.00
10417;DHT22;62605;49.432;8.680;2022-08-23T06:29:55;20.90;1.00
10417;DHT22;62605;49.432;8.680;2022-08-23T06:32:23;20.80;1.00
10417;DHT22;62605;49.432;8.680;2022-08-23T06:34:50;20.80;1.00
10417;DHT22;62605;49.432;8.680;2022-08-23T06:37:17;20.90;1.00
10417;DHT22;62605;49.432;8.680;2022-08-23T06:39:44;21.00;1.00
10417;DHT22;62605;49.432;8.680;2022-08-23T06:42:13;21.00;1.00
10417;DHT22;62605;49.432;8.680;2022-08-23T06:44:42;21.20;1.00
10417;DHT22;62605;49.432;8.680;2022-08-23T06:47:09;21.30;1.00
10417;DHT22;62605;49.432;8.680;2022-08-23T06:49:38;21.40;1.00
10417;DHT22;62605;49.432;8.680;2022-08-23T06:52:05;21.40;1.00
10417;DHT22;62605;49.432;8.680;2022-08-23T06:54:34;21.50;1.00
10417;DHT22;62605;49.432;8.680;2022-08-23T06:57:02;21.60;1.00
10417;DHT22;62605;49.432;8.680;2022-08-23T06:59:30;21.70;1.00
10417;DHT22;62605;49.432;8.680;2022-08-23T07:01:58;21.80;1.00
10417;DHT22;62605;49.432;8.680;2022-08-23T07:04:27;21.80;1.00
10417;DHT22;62605;49.432;8.680;2022-08-23T07:06:57;21.80;1.00
10417;DHT22;62605;49.432;8.680;2022-08-23T07:09:26;21.90;1.00
10417;DHT22;62605;49.432;8.680;2022-08-23T07:11:53;21.90;1.00
10417;DHT22;62605;49.432;8.680;2022-08-23T07:14:22;22.00;1.00
10417;DHT22;62605;49.432;8.680;2022-08-23T07:16:51;22.10;1.00
10417;DHT22;62605;49.432;8.680;2022-08-23T07:19:22;22.20;1.00
10417;DHT22;62605;49.432;8.680;2022-08-23T07:21:50;22.30;1.00
10417;DHT22;62605;49.432;8.680;2022-08-23T07:24:19;22.40;1.00
10417;DHT22;62605;49.432;8.680;2022-08-23T07:26:48;22.50;1.00
10417;DHT22;62605;49.432;8.680;2022-08-23T07:29:17;22.70;1.00
10417;DHT22;62605;49.432;8.680;2022-08-23T07:31:47;22.90;1.00
10417;DHT22;62605;49.432;8.680;2022-08-23T07:34:14;23.00;1.00
10417;DHT22;62605;49.432;8.680;2022-08-23T07:36:43;23.00;99.90
10417;DHT22;62605;49.432;8.680;2022-08-23T07:39:11;23.20;99.90
10417;DHT22;62605;49.432;8.680;2022-08-23T07:41:40;23.40;99.90
10417;DHT22;62605;49.432;8.680;2022-08-23T07:44:09;23.40;99.90
10417;DHT22;62605;49.432;8.680;2022-08-23T07:46:37;23.50;99.90
10417;DHT22;62605;49.432;8.680;2022-08-23T07:49:06;23.60;99.90
10417;DHT22;62605;49.432;8.680;2022-08-23T07:51:34;23.50;99.90
10417;DHT22;62605;49.432;8.680;2022-08-23T07:54:03;23.60;99.90
10417;DHT22;62605;49.432;8.680;2022-08-23T07:56:31;23.60;99.90
10417;DHT22;62605;49.432;8.680;2022-08-23T07:59:00;23.80;99.90
10417;DHT22;62605;49.432;8.680;2022-08-23T08:01:28;23.90;99.90
10417;DHT22;62605;49.432;8.680;2022-08-23T08:03:58;24.10;99.90
10417;DHT22;62605;49.432;8.680;2022-08-23T08:06:28;24.30;99.90
10417;DHT22;62605;49.432;8.680;2022-08-23T08:08:55;24.30;99.90
10417;DHT22;62605;49.432;8.680;2022-08-23T08:11:25;24.40;99.90
10417;DHT22;62605;49.432;8.680;2022-08-23T08:13:53;24.50;99.90
10417;DHT22;62605;49.432;8.680;2022-08-23T08:16:25;24.60;99.90
10417;DHT22;62605;49.432;8.680;2022-08-23T08:18:53;24.60;99.90
10417;DHT22;62605;49.432;8.680;2022-08-23T08:21:21;24.70;99.90
10417;DHT22;62605;49.432;8.680;2022-08-23T08:23:48;24.90;99.90
10417;DHT22;62605;49.432;8.680;2022-08-23T08:26:16;25.00;99.90
10417;DHT22;62605;49.432;8.680;2022-08-23T08:28:43;25.00;99.90
10417;DHT22;62605;49.432;8.680;2022-08-23T08:31:11;24.90;99.90
10417;DHT22;62605;49.432;8.680;2022-08-23T08:33:40;24.90;99.90
10417;DHT22;62605;49.432;8.680;2022-08-23T08:36:08;25.20;99.90
10417;DHT22;62605;49.432;8.680;2022-08-23T08:38:38;25.30;99.90
10417;DHT22;62605;49.432;8.680;2022-08-23T08:41:19;25.30;99.90
10417;DHT22;62605;49.432;8.680;2022-08-23T08:43:54;25.40;99.90
10417;DHT22;62605;49.432;8.680;2022-08-23T08:46:27;25.50;99.90
10417;DHT22;62605;49.432;8.680;2022-08-23T08:49:01;25.60;99.90
10417;DHT22;62605;49.432;8.680;2022-08-23T08:51:39;25.70;99.90
10417;DHT22;62605;49.432;8.680;2022-08-23T08:54:11;25.70;99.90
10417;DHT22;62605;49.432;8.680;2022-08-23T08:56:40;25.80;99.90
10417;DHT22;62605;49.432;8.680;2022-08-23T08:59:12;25.70;99.90
10417;DHT22;62605;49.432;8.680;2022-08-23T09:01:40;25.80;99.90
10417;DHT22;62605;49.432;8.680;2022-08-23T09:04:09;26.10;99.90
10417;DHT22;62605;49.432;8.680;2022-08-23T09:06:47;26.00;99.90
10417;DHT22;62605;49.432;8.680;2022-08-23T09:09:28;26.00;99.90
10417;DHT22;62605;49.432;8.680;2022-08-23T09:12:07;26.10;99.90
10417;DHT22;62605;49.432;8.680;2022-08-23T09:15:02;26.30;99.90
10417;DHT22;62605;49.432;8.680;2022-08-23T09:17:41;26.50;99.90
10417;DHT22;62605;49.432;8.680;2022-08-23T09:20:14;26.80;99.90
10417;DHT22;62605;49.432;8.680;2022-08-23T09:22:43;26.80;99.90
10417;DHT22;62605;49.432;8.680;2022-08-23T09:25:13;26.90;99.90
10417;DHT22;62605;49.432;8.680;2022-08-23T09:27:43;26.80;99.90
10417;DHT22;62605;49.432;8.680;2022-08-23T09:30:12;26.90;99.90
10417;DHT22;62605;49.432;8.680;2022-08-23T09:32:41;27.00;99.90
10417;DHT22;62605;49.432;8.680;2022-08-23T09:35:13;27.00;99.90
10417;DHT22;62605;49.432;8.680;2022-08-23T09:37:49;27.10;99.90
10417;DHT22;62605;49.432;8.680;2022-08-23T09:40:19;27.00;99.90
10417;DHT22;62605;49.432;8.680;2022-08-23T09:43:04;27.30;99.90
10417;DHT22;62605;49.432;8.680;2022-08-23T09:45:34;27.40;99.90
10417;DHT22;62605;49.432;8.680;2022-08-23T09:48:01;27.40;99.90
10417;DHT22;62605;49.432;8.680;2022-08-23T09:50:33;27.50;99.90
10417;DHT22;62605;49.432;8.680;2022-08-23T09:53:02;27.40;99.90
10417;DHT22;62605;49.432;8.680;2022-08-23T09:55:32;27.40;99.90
10417;DHT22;62605;49.432;8.680;2022-08-23T09:58:03;27.60;99.90
10417;DHT22;62605;49.432;8.680;2022-08-23T10:00:33;27.70;99.90
10417;DHT22;62605;49.432;8.680;2022-08-23T10:03:23;28.00;99.90
10417;DHT22;62605;49.432;8.680;2022-08-23T10:05:54;27.90;99.90
10417;DHT22;62605;49.432;8.680;2022-08-23T10:08:24;28.00;99.90
10417;DHT22;62605;49.432;8.680;2022-08-23T10:10:53;28.20;99.90
10417;DHT22;62605;49.432;8.680;2022-08-23T10:13:22;28.00;99.90
10417;DHT22;62605;49.432;8.680;2022-08-23T10:15:56;28.10;99.90
10417;DHT22;62605;49.432;8.680;2022-08-23T10:18:34;28.30;99.90
10417;DHT22;62605;49.432;8.680;2022-08-23T10:21:13;28.40;99.90
10417;DHT22;62605;49.432;8.680;2022-08-23T10:23:58;28.40;99.90
10417;DHT22;62605;49.432;8.680;2022-08-23T10:26:31;28.60;99.90
10417;DHT22;62605;49.432;8.680;2022-08-23T10:29:05;29.00;99.90
10417;DHT22;62605;49.432;8.680;2022-08-23T10:31:57;29.00;99.90
10417;DHT22;62605;49.432;8.680;2022-08-23T10:34:42;28.70;99.90
10417;DHT22;62605;49.432;8.680;2022-08-23T10:37:38;28.70;99.90
10417;DHT22;62605;49.432;8.680;2022-08-23T10:40:14;28.70;99.90
10417;DHT22;62605;49.432;8.680;2022-08-23T10:42:49;28.90;99.90
10417;DHT22;62605;49.432;8.680;2022-08-23T10:45:28;29.10;99.90
10417;DHT22;62605;49.432;8.680;2022-08-23T10:48:09;29.10;99.90
10417;DHT22;62605;49.432;8.680;2022-08-23T10:50:43;28.70;99.90
10417;DHT22;62605;49.432;8.680;2022-08-23T10:53:16;28.70;99.90
10417;DHT22;62605;49.432;8.680;2022-08-23T10:55:47;28.70;99.90
10417;DHT22;62605;49.432;8.680;2022-08-23T10:58:33;29.00;99.90
10417;DHT22;62605;49.432;8.680;2022-08-23T11:01:00;28.80;99.90
10417;DHT22;62605;49.432;8.680;2022-08-23T11:03:32;29.00;99.90
10417;DHT22;62605;49.432;8.680;2022-08-23T11:06:42;28.90;99.90
10417;DHT22;62605;49.432;8.680;2022-08-23T11:09:36;28.90;99.90
10417;DHT22;62605;49.432;8.680;2022-08-23T11:12:20;29.10;99.90
10417;DHT22;62605;49.432;8.680;2022-08-23T11:15:03;29.30;99.90
10417;DHT22;62605;49.432;8.680;2022-08-23T11:17:41;29.40;99.90
10417;DHT22;62605;49.432;8.680;2022-08-23T11:20:12;29.40;99.90
10417;DHT22;62605;49.432;8.680;2022-08-23T11:23:10;29.60;99.90
10417;DHT22;62605;49.432;8.680;2022-08-23T11:25:41;29.60;99.90
10417;DHT22;62605;49.432;8.680;2022-08-23T11:28:35;29.60;99.90
10417;DHT22;62605;49.432;8.680;2022-08-23T11:31:19;29.50;99.90
10417;DHT22;62605;49.432;8.680;2022-08-23T11:33:50;29.60;99.90
10417;DHT22;62605;49.432;8.680;2022-08-23T11:36:21;29.60;99.90
10417;DHT22;62605;49.432;8.680;2022-08-23T11:39:16;29.60;99.90
10417;DHT22;62605;49.432;8.680;2022-08-23T11:42:00;29.90;99.90
10417;DHT22;62605;49.432;8.680;2022-08-23T11:44:35;30.30;99.90
10417;DHT22;62605;49.432;8.680;2022-08-23T11:47:05;30.40;99.90
10417;DHT22;62605;49.432;8.680;2022-08-23T11:55:59;30.40;99.90
10417;DHT22;62605;49.432;8.680;2022-08-23T11:58:42;30.90;99.90
10417;DHT22;62605;49.432;8.680;2022-08-23T12:01:28;30.70;99.90
10417;DHT22;62605;49.432;8.680;2022-08-23T12:04:08;30.30;99.90
10417;DHT22;62605;49.432;8.680;2022-08-23T12:06:45;30.40;99.90
10417;DHT22;62605;49.432;8.680;2022-08-23T12:09:50;30.50;99.90
10417;DHT22;62605;49.432;8.680;2022-08-23T12:12:26;30.60;99.90
10417;DHT22;62605;49.432;8.680;2022-08-23T12:14:58;30.70;99.90
10417;DHT22;62605;49.432;8.680;2022-08-23T12:17:54;30.80;99.90
10417;DHT22;62605;49.432;8.680;2022-08-23T12:20:30;30.70;99.90
10417;DHT22;62605;49.432;8.680;2022-08-23T12:23:06;30.80;99.90
10417;DHT22;62605;49.432;8.680;2022-08-23T12:25:34;30.90;99.90
10417;DHT22;62605;49.432;8.680;2022-08-23T12:28:10;31.10;99.90
10417;DHT22;62605;49.432;8.680;2022-08-23T12:30:57;31.00;99.90
10417;DHT22;62605;49.432;8.680;2022-08-23T12:33:38;31.00;99.90
10417;DHT22;62605;49.432;8.680;2022-08-23T12:36:11;31.00;99.90
10417;DHT22;62605;49.432;8.680;2022-08-23T12:38:49;31.00;99.90
10417;DHT22;62605;49.432;8.680;2022-08-23T12:41:20;31.60;99.90
10417;DHT22;62605;49.432;8.680;2022-08-23T12:43:57;31.90;99.90
10417;DHT22;62605;49.432;8.680;2022-08-23T12:46:31;32.20;99.90
10417;DHT22;62605;49.432;8.680;2022-08-23T12:48:59;31.80;99.90
10417;DHT22;62605;49.432;8.680;2022-08-23T12:51:26;32.10;99.90
10417;DHT22;62605;49.432;8.680;2022-08-23T12:53:54;32.00;99.90
10417;DHT22;62605;49.432;8.680;2022-08-23T12:56:24;32.10;99.90
10417;DHT22;62605;49.432;8.680;2022-08-23T12:58:54;32.40;99.90
10417;DHT22;62605;49.432;8.680;2022-08-23T13:01:24;32.30;99.90
10417;DHT22;62605;49.432;8.680;2022-08-23T13:03:57;32.30;99.90
10417;DHT22;62605;49.432;8.680;2022-08-23T13:06:29;32.20;99.90
10417;DHT22;62605;49.432;8.680;2022-08-23T13:08:59;31.80;99.90
10417;DHT22;62605;49.432;8.680;2022-08-23T13:11:30;31.70;99.90
10417;DHT22;62605;49.432;8.680;2022-08-23T13:13:58;31.60;99.90
10417;DHT22;62605;49.432;8.680;2022-08-23T13:16:41;31.70;99.90
10417;DHT22;62605;49.432;8.680;2022-08-23T13:19:16;31.50;99.90
10417;DHT22;62605;49.432;8.680;2022-08-23T13:21:47;32.20;99.90
10417;DHT22;62605;49.432;8.680;2022-08-23T13:24:33;32.00;99.90
10417;DHT22;62605;49.432;8.680;2022-08-23T13:27:15;32.10;99.90
10417;DHT22;62605;49.432;8.680;2022-08-23T13:29:50;32.30;99.90
10417;DHT22;62605;49.432;8.680;2022-08-23T13:32:33;32.10;99.90
10417;DHT22;62605;49.432;8.680;2022-08-23T13:35:31;32.40;99.90
10417;DHT22;62605;49.432;8.680;2022-08-23T13:38:09;32.70;99.90
10417;DHT22;62605;49.432;8.680;2022-08-23T13:40:41;32.80;99.90
10417;DHT22;62605;49.432;8.680;2022-08-23T13:43:12;32.90;99.90
10417;DHT22;62605;49.432;8.680;2022-08-23T13:45:50;33.10;99.90
10417;DHT22;62605;49.432;8.680;2022-08-23T13:48:20;32.50;99.90
10417;DHT22;62605;49.432;8.680;2022-08-23T13:50:50;32.40;99.90
10417;DHT22;62605;49.432;8.680;2022-08-23T13:53:17;32.80;99.90
10417;DHT22;62605;49.432;8.680;2022-08-23T13:55:47;32.80;99.90
10417;DHT22;62605;49.432;8.680;2022-08-23T13:58:23;33.00;99.90
10417;DHT22;62605;49.432;8.680;2022-08-23T14:00:51;33.10;99.90
10417;DHT22;62605;49.432;8.680;2022-08-23T14:03:18;32.90;99.90
10417;DHT22;62605;49.432;8.680;2022-08-23T14:05:45;32.70;99.90
10417;DHT22;62605;49.432;8.680;2022-08-23T14:08:14;33.00;99.90
10417;DHT22;62605;49.432;8.680;2022-08-23T14:10:41;33.30;99.90
10417;DHT22;62605;49.432;8.680;2022-08-23T14:13:08;33.30;99.90
10417;DHT22;62605;49.432;8.680;2022-08-23T14:15:37;33.50;99.90
10417;DHT22;62605;49.432;8.680;2022-08-23T14:18:05;33.60;99.90
10417;DHT22;62605;49.432;8.680;2022-08-23T14:20:32;33.30;99.90
10417;DHT22;62605;49.432;8.680;2022-08-23T14:22:59;33.30;99.90
10417;DHT22;62605;49.432;8.680;2022-08-23T14:25:28;33.20;99.90
10417;DHT22;62605;49.432;8.680;2022-08-23T14:27:56;33.20;99.90
10417;DHT22;62605;49.432;8.680;2022-08-23T14:30:26;33.00;99.90
10417;DHT22;62605;49.432;8.680;2022-08-23T14:32:53;33.00;99.90
10417;DHT22;62605;49.432;8.680;2022-08-23T14:35:20;33.00;99.90
10417;DHT22;62605;49.432;8.680;2022-08-23T14:37:48;33.00;99.90
10417;DHT22;62605;49.432;8.680;2022-08-23T14:40:15;33.00;99.90
10417;DHT22;62605;49.432;8.680;2022-08-23T14:42:44;32.50;99.90
10417;DHT22;62605;49.432;8.680;2022-08-23T14:45:13;32.70;99.90
10417;DHT22;62605;49.432;8.680;2022-08-23T14:47:42;32.30;99.90
10417;DHT22;62605;49.432;8.680;2022-08-23T14:50:11;32.50;99.90
10417;DHT22;62605;49.432;8.680;2022-08-23T14:52:43;32.60;99.90
10417;DHT22;62605;49.432;8.680;2022-08-23T14:55:11;33.00;99.90
10417;DHT22;62605;49.432;8.680;2022-08-23T14:57:39;32.50;99.90
10417;DHT22;62605;49.432;8.680;2022-08-23T15:00:10;32.30;99.90
10417;DHT22;62605;49.432;8.680;2022-08-23T15:02:42;32.10;99.90
10417;DHT22;62605;49.432;8.680;2022-08-23T15:05:09;32.10;99.90
10417;DHT22;62605;49.432;8.680;2022-08-23T15:07:37;31.90;99.90
10417;DHT22;62605;49.432;8.680;2022-08-23T15:10:06;32.30;99.90
10417;DHT22;62605;49.432;8.680;2022-08-23T15:12:36;32.70;99.90
10417;DHT22;62605;49.432;8.680;2022-08-23T15:15:06;33.10;99.90
10417;DHT22;62605;49.432;8.680;2022-08-23T15:17:37;33.20;99.90
10417;DHT22;62605;49.432;8.680;2022-08-23T15:20:09;32.80;99.90
10417;DHT22;62605;49.432;8.680;2022-08-23T15:22:36;33.10;99.90
10417;DHT22;62605;49.432;8.680;2022-08-23T15:25:04;33.30;99.90
10417;DHT22;62605;49.432;8.680;2022-08-23T15:27:32;33.20;99.90
10417;DHT22;62605;49.432;8.680;2022-08-23T15:29:59;33.00;99.90
10417;DHT22;62605;49.432;8.680;2022-08-23T15:32:26;33.10;99.90
10417;DHT22;62605;49.432;8.680;2022-08-23T15:34:55;33.20;99.90
10417;DHT22;62605;49.432;8.680;2022-08-23T15:37:22;33.80;99.90
10417;DHT22;62605;49.432;8.680;2022-08-23T15:39:49;33.50;99.90
10417;DHT22;62605;49.432;8.680;2022-08-23T15:42:17;34.00;99.90
10417;DHT22;62605;49.432;8.680;2022-08-23T15:44:44;34.10;99.90
10417;DHT22;62605;49.432;8.680;2022-08-23T15:47:17;34.20;99.90
10417;DHT22;62605;49.432;8.680;2022-08-23T15:49:45;34.20;99.90
10417;DHT22;62605;49.432;8.680;2022-08-23T15:52:14;33.90;99.90
10417;DHT22;62605;49.432;8.680;2022-08-23T15:54:42;33.80;99.90
10417;DHT22;62605;49.432;8.680;2022-08-23T15:57:13;33.40;99.90
10417;DHT22;62605;49.432;8.680;2022-08-23T15:59:40;33.70;99.90
10417;DHT22;62605;49.432;8.680;2022-08-23T16:02:08;33.50;99.90
10417;DHT22;62605;49.432;8.680;2022-08-23T16:04:35;34.00;99.90